LYBE/BEG METAR and TAF weather

Enter ICAO airport designator
Station Type Date Time Source
LYBE METAR 2024/07/15 20:30 UTC NOAA

LYBE 152030Z 06003KT CAVOK 30/23 Q1011 NOSIG


Station Type Date Time Source
LYBE Decoded METAR 2024/07/15 20:30 UTC NOAA

Beograd / Surcin, Serbia and Montenegro (LYBE) 44-49N 020-17E 99M
Jul 15, 2024 - 04:30 PM EDT / 2024.07.15 2030 UTC
Wind: from the ENE (060 degrees) at 3 MPH (3 KT):0
Visibility: greater than 7 mile(s):0
Temperature: 86 F (30 C)
Heat index: 93.4 F (34.1 C):1
Dew Point: 73 F (23 C)
Relative Humidity: 66%
Pressure (altimeter): 29.85 in. Hg (1011 hPa)
ob: LYBE 152030Z 06003KT CAVOK 30/23 Q1011 NOSIG
cycle: 20

Station Type Date Time Source
LYBE TAF 2024/07/15 18:21 UTC NOAA